Roza A — TCRB7 — position and weather

sailwx.info

Track history (hours):
 
Tides and Currents Weather Stations Pressure Air Temp Water Temp Dewpoint Dewpoint Depression Visibility Wind Speed Wind Dir Waves Ship Positions

Roza A

Last reported at 2017-Jan-20 15:33 UTC. Time now 2017-Jan-20 20:10 UTC.
Position N 35°59' W 005°28'.

; draft 7 m.

Type: Ship (hazmat cat A). MMSI: 271001057.

Date/timePositionNaut miles runAvg speedWind from/ knotsBaromVisibWave heightAir tempDewpointWater temp
2017-Jan-20 15:33N 35°59' W 005°28'1413.8
2017-Jan-20 14:33N 36°02' W 005°12'68615.2
2017-Jan-18 17:28N 38°48' E 008°46'1415.1
2017-Jan-18 16:33N 38°56' E 009°01'1111.4
2017-Jan-18 15:32N 39°06' E 009°08'2 1.9
2017-Jan-18 14:33N 39°07' E 009°09'0 0.0
2017-Jan-18 13:33N 39°07' E 009°09'0 0.1
2017-Jan-18 12:33N 39°07' E 009°09'0 0.0
2017-Jan-18 11:33N 39°07' E 009°10'0 0.3
2017-Jan-18 10:33N 39°07' E 009°09'5 5.3
2017-Jan-18 09:33N 39°12' E 009°06'2 2.0
2017-Jan-18 08:32N 39°13' E 009°04'0 0.0
2017-Jan-18 07:32N 39°13' E 009°04'0 0.0
2017-Jan-18 06:32N 39°13' E 009°04'0 0.0
2017-Jan-18 05:32N 39°13' E 009°04'0 0.0
2017-Jan-18 04:32N 39°13' E 009°04'0 0.0
2017-Jan-18 03:32N 39°13' E 009°04'0 0.0
2017-Jan-18 02:32N 39°13' E 009°04'0 0.0
2017-Jan-18 01:32N 39°13' E 009°04'0 0.0
2017-Jan-18 00:32N 39°13' E 009°04'0 0.0
2017-Jan-17 23:32N 39°13' E 009°04'0 0.0
2017-Jan-17 22:32N 39°13' E 009°04'2 2.5
2017-Jan-17 21:33N 39°11' E 009°06'4 4.2
2017-Jan-17 20:33N 39°07' E 009°07'5 5.1
2017-Jan-17 19:33N 39°04' E 009°12'1414.2
2017-Jan-17 18:33N 38°57' E 009°28'22813.9
2017-Jan-17 02:13N 37°03' E 013°38'914.0
2017-Jan-17 01:33N 36°58' E 013°48'1414.2
2017-Jan-17 00:33N 36°51' E 014°03'1514.7
2017-Jan-16 23:33N 36°44' E 014°19'1414.4
2017-Jan-16 22:34N 36°39' E 014°36'1413.9
2017-Jan-16 21:33N 36°35' E 014°53'1413.7
2017-Jan-16 20:33N 36°30' E 015°09'1413.7
2017-Jan-16 19:34N 36°21' E 015°21'1010.0
2017-Jan-16 18:33N 36°16' E 015°32'9 8.8
2017-Jan-16 17:33N 36°15' E 015°42'7 6.9
2017-Jan-16 16:33N 36°15' E 015°51'6 5.8
2017-Jan-16 15:33N 36°19' E 015°56'1010.0
2017-Jan-16 14:33N 36°20' E 015°44'154 7.3
2017-Jan-15 17:25N 36°26' E 018°55'1415.9
2017-Jan-15 16:33N 36°25' E 019°12'1615.9
2017-Jan-15 15:34N 36°25' E 019°31'1616.1
2017-Jan-15 14:34N 36°24' E 019°51'1615.5
2017-Jan-15 13:34N 36°24' E 020°11'1515.3
2017-Jan-15 12:33N 36°24' E 020°30'1615.6
2017-Jan-15 11:34N 36°23' E 020°49'1515.2
2017-Jan-15 10:34N 36°22' E 021°08'1615.6
2017-Jan-15 09:33N 36°22' E 021°27'15713.7
2017-Jan-14 22:03N 37°44' E 024°15'815.6
2017-Jan-14 21:34N 37°49' E 024°23'  
Track history (hours):
 
Tides and Currents Weather Stations Pressure Air Temp Water Temp Dewpoint Dewpoint Depression Visibility Wind Speed Wind Dir Waves Ship Positions

Roza A

Last reported at 2017-Jan-20 15:33 UTC. Time now 2017-Jan-20 20:10 UTC.
Position N 35°59' W 005°28'.

; draft 7 m.

Type: Ship (hazmat cat A). MMSI: 271001057.

Date/timePositionNaut miles runAvg speedWind from/ knotsBaromVisibWave heightAir tempDewpointWater temp
2017-Jan-20 15:33N 35°59' W 005°28'1413.8
2017-Jan-20 14:33N 36°02' W 005°12'68615.2
2017-Jan-18 17:28N 38°48' E 008°46'1415.1
2017-Jan-18 16:33N 38°56' E 009°01'1111.4
2017-Jan-18 15:32N 39°06' E 009°08'2 1.9
2017-Jan-18 14:33N 39°07' E 009°09'0 0.0
2017-Jan-18 13:33N 39°07' E 009°09'0 0.1
2017-Jan-18 12:33N 39°07' E 009°09'0 0.0
2017-Jan-18 11:33N 39°07' E 009°10'0 0.3
2017-Jan-18 10:33N 39°07' E 009°09'5 5.3
2017-Jan-18 09:33N 39°12' E 009°06'2 2.0
2017-Jan-18 08:32N 39°13' E 009°04'0 0.0
2017-Jan-18 07:32N 39°13' E 009°04'0 0.0
2017-Jan-18 06:32N 39°13' E 009°04'0 0.0
2017-Jan-18 05:32N 39°13' E 009°04'0 0.0
2017-Jan-18 04:32N 39°13' E 009°04'0 0.0
2017-Jan-18 03:32N 39°13' E 009°04'0 0.0
2017-Jan-18 02:32N 39°13' E 009°04'0 0.0
2017-Jan-18 01:32N 39°13' E 009°04'0 0.0
2017-Jan-18 00:32N 39°13' E 009°04'0 0.0
2017-Jan-17 23:32N 39°13' E 009°04'0 0.0
2017-Jan-17 22:32N 39°13' E 009°04'2 2.5
2017-Jan-17 21:33N 39°11' E 009°06'4 4.2
2017-Jan-17 20:33N 39°07' E 009°07'5 5.1
2017-Jan-17 19:33N 39°04' E 009°12'1414.2
2017-Jan-17 18:33N 38°57' E 009°28'22813.9
2017-Jan-17 02:13N 37°03' E 013°38'914.0
2017-Jan-17 01:33N 36°58' E 013°48'1414.2
2017-Jan-17 00:33N 36°51' E 014°03'1514.7
2017-Jan-16 23:33N 36°44' E 014°19'1414.4
2017-Jan-16 22:34N 36°39' E 014°36'1413.9
2017-Jan-16 21:33N 36°35' E 014°53'1413.7
2017-Jan-16 20:33N 36°30' E 015°09'1413.7
2017-Jan-16 19:34N 36°21' E 015°21'1010.0
2017-Jan-16 18:33N 36°16' E 015°32'9 8.8
2017-Jan-16 17:33N 36°15' E 015°42'7 6.9
2017-Jan-16 16:33N 36°15' E 015°51'6 5.8
2017-Jan-16 15:33N 36°19' E 015°56'1010.0
2017-Jan-16 14:33N 36°20' E 015°44'154 7.3
2017-Jan-15 17:25N 36°26' E 018°55'1415.9
2017-Jan-15 16:33N 36°25' E 019°12'1615.9
2017-Jan-15 15:34N 36°25' E 019°31'1616.1
2017-Jan-15 14:34N 36°24' E 019°51'1615.5
2017-Jan-15 13:34N 36°24' E 020°11'1515.3
2017-Jan-15 12:33N 36°24' E 020°30'1615.6
2017-Jan-15 11:34N 36°23' E 020°49'1515.2
2017-Jan-15 10:34N 36°22' E 021°08'1615.6
2017-Jan-15 09:33N 36°22' E 021°27'15713.7
2017-Jan-14 22:03N 37°44' E 024°15'815.6
2017-Jan-14 21:34N 37°49' E 024°23'  

Dump ship's entire track history